Pagrindinis puslapis
METAR-TAF:

METAR-TAF

Oro uostai :

Savanaketas, Laosas

platuma: 16-33-24N, ilguma: 104-45-34E, Aukštis: 155 m

Dabartinis oras

Ataskaita buvo paskelbta 33 minutes, ne 04:00 UTC
Vėjas 4 kt iš Rytų/Šiaurės Rytų
Temperatūra 31°C
Drėgmė 59%
Slėgis 1011 hPa
Matomumas: 9000 m
Išsisklaidę debesys ne aukštis 2000 ft
Išsisklaidę debesys ne aukštis 10000 ft

METAR: VLSK 210400Z 06004KT 9000 SCT020 SCT100 31/22 Q1011 NOSIG

Laikas: 11:33 (04:33 UTC)

Prognozė

Ataskaita buvo paskelbta 5 valandos ir 33 minutes, ne 23:00 UTC
Prognozė galioja nuo 21 metu 00 UTC su 21 metu 24 UTC
Vėjas 6 kt iš Rytų/Šiaurės Rytų
Matomumas: 5000 m
Išsisklaidę debesys ne aukštis 1600 ft
Išsisklaidę debesys ne aukštis 5000 ft
Su prošvaistėmis ne aukštis 10000 ft
rūkana
Laikinai
nuo 21 metu 05 UTC su 21 metu 09 UTC
Matomumas: 8000 m
Išsisklaidę debesys ne aukštis 2000 ft
Išsisklaidę debesys ne aukštis 10000 ft

TAF: VLSK 202300Z 2100/2124 06006KT 5000 BR SCT016 SCT050 BKN100 TEMPO 2105/2109 8000 SCT020 SCT100

Orai ataskaitas ir orų prognozės (METAR, TAF).

turimą stotys yra geltonos ir raudonos taškus žemėlapyje.

Perkelti pele per norėdami pamatyti stoties vardą.

Tada spustelėkite, norėdami matyti oro stebėjimo ir prognozės.

Norėdami pakeisti žemėlapį: spustelėkite ant žalios mygtukų su juodo kryžiaus žemyn,; žalią mygtuką su brūkšneliu, jei norite nutolinti; arba žalių rodyklių gretimoms žemėlapius.


METAR-TAF: